Time;durP1;ratioP1;P1;durP2;ratioP2;P2;SDS_P1;SDS_P2;PMS_P1;PMS_P2;Temp;Humidity;BMP_temperature;BMP_pressure;BME280_temperature;BME280_humidity;BME280_pressure;Samples;Min_cycle;Max_cycle;Signal;HPM_P1;HPM_P2
2021/03/02 00:00:24;;;;;;;13.45;6.45;;;;;;;-0.24;49.04688;96408.98;;;;
2021/03/02 00:01:25;;;;;;;12.95;6.75;;;;;;;-0.37;49.29395;96412.42;;;;
2021/03/02 00:02:25;;;;;;;12.95;6.75;;;;;;;-0.37;49.29395;96412.42;;;;
2021/03/02 00:03:27;;;;;;;12.95;6.75;;;;;;;-0.37;49.29395;96412.42;;;;
2021/03/02 00:04:28;;;;;;;12.95;6.75;;;;;;;-0.37;49.29395;96412.42;;;;
2021/03/02 00:05:29;;;;;;;12.95;6.75;;;;;;;-0.37;49.29395;96412.42;;;;
2021/03/02 00:06:30;;;;;;;12.95;6.75;;;;;;;-0.37;49.29395;96412.42;;;;
2021/03/02 00:07:30;;;;;;;12.95;6.75;;;;;;;-0.37;49.29395;96412.42;;;;
2021/03/02 00:08:31;;;;;;;12.95;6.75;;;;;;;-0.37;49.29395;96412.42;;;;
2021/03/02 00:09:33;;;;;;;12.95;6.75;;;;;;;-0.37;49.29395;96412.42;;;;
2021/03/02 00:10:33;;;;;;;12.95;6.75;;;;;;;-0.37;49.29395;96412.42;;;;
2021/03/02 00:11:35;;;;;;;17.8;7.799999;;;;;;;-0.47;49.5459;96415.1;;;;
2021/03/02 00:12:37;;;;;;;17.8;7.799999;;;;;;;-0.47;49.5459;96415.1;;;;
2021/03/02 00:13:39;;;;;;;17.8;7.799999;;;;;;;-0.47;49.5459;96415.1;;;;
2021/03/02 00:14:40;;;;;;;17.8;7.799999;;;;;;;-0.47;49.5459;96415.1;;;;
2021/03/02 00:15:40;;;;;;;17.8;7.799999;;;;;;;-0.47;49.5459;96415.1;;;;
2021/03/02 00:16:41;;;;;;;17.8;7.799999;;;;;;;-0.47;49.5459;96415.1;;;;
2021/03/02 00:17:44;;;;;;;17.8;7.799999;;;;;;;-0.47;49.5459;96415.1;;;;
2021/03/02 00:18:46;;;;;;;17.8;7.799999;;;;;;;-0.47;49.5459;96415.1;;;;
2021/03/02 00:19:51;;;;;;;17.8;7.799999;;;;;;;-0.47;49.5459;96415.1;;;;
2021/03/02 00:21:00;;;;;;;17.8;7.799999;;;;;;;-0.47;49.5459;96415.1;;;;
2021/03/02 00:22:06;;;;;;;15.3;7.200001;;;;;;;-0.57;49.82813;96416.91;;;;
2021/03/02 00:23:16;;;;;;;15.3;7.200001;;;;;;;-0.57;49.82813;96416.91;;;;
2021/03/02 00:24:24;;;;;;;15.3;7.200001;;;;;;;-0.57;49.82813;96416.91;;;;
2021/03/02 00:25:30;;;;;;;15.3;7.200001;;;;;;;-0.57;49.82813;96416.91;;;;
2021/03/02 00:26:34;;;;;;;15.3;7.200001;;;;;;;-0.57;49.82813;96416.91;;;;
2021/03/02 00:27:39;;;;;;;15.3;7.200001;;;;;;;-0.57;49.82813;96416.91;;;;
2021/03/02 00:28:40;;;;;;;15.3;7.200001;;;;;;;-0.57;49.82813;96416.91;;;;
2021/03/02 00:29:42;;;;;;;15.3;7.200001;;;;;;;-0.57;49.82813;96416.91;;;;
2021/03/02 00:30:43;;;;;;;15.3;7.200001;;;;;;;-0.57;49.82813;96416.91;;;;
2021/03/02 00:31:43;;;;;;;15.3;7.200001;;;;;;;-0.57;49.82813;96416.91;;;;
2021/03/02 00:32:44;;;;;;;13;6.099999;;;;;;;-0.58;49.90039;96414.83;;;;
2021/03/02 00:33:46;;;;;;;13;6.099999;;;;;;;-0.58;49.90039;96414.83;;;;
2021/03/02 00:34:47;;;;;;;13;6.099999;;;;;;;-0.58;49.90039;96414.83;;;;
2021/03/02 00:35:48;;;;;;;13;6.099999;;;;;;;-0.58;49.90039;96414.83;;;;
2021/03/02 00:36:49;;;;;;;13;6.099999;;;;;;;-0.58;49.90039;96414.83;;;;
2021/03/02 00:37:50;;;;;;;13;6.099999;;;;;;;-0.58;49.90039;96414.83;;;;
2021/03/02 00:38:50;;;;;;;13;6.099999;;;;;;;-0.58;49.90039;96414.83;;;;
2021/03/02 00:39:51;;;;;;;13;6.099999;;;;;;;-0.58;49.90039;96414.83;;;;
2021/03/02 00:40:51;;;;;;;13;6.099999;;;;;;;-0.58;49.90039;96414.83;;;;
2021/03/02 00:41:52;;;;;;;13;6.099999;;;;;;;-0.58;49.90039;96414.83;;;;
2021/03/02 00:42:52;;;;;;;13;6.099999;;;;;;;-0.58;49.90039;96414.83;;;;
2021/03/02 00:43:53;;;;;;;10.7;6.100001;;;;;;;-0.61;49.98047;96418.58;;;;
2021/03/02 00:44:53;;;;;;;10.7;6.100001;;;;;;;-0.61;49.98047;96418.58;;;;
2021/03/02 00:45:54;;;;;;;10.7;6.100001;;;;;;;-0.61;49.98047;96418.58;;;;
2021/03/02 00:46:54;;;;;;;10.7;6.100001;;;;;;;-0.61;49.98047;96418.58;;;;
2021/03/02 00:47:55;;;;;;;10.7;6.100001;;;;;;;-0.61;49.98047;96418.58;;;;
2021/03/02 00:48:55;;;;;;;10.7;6.100001;;;;;;;-0.61;49.98047;96418.58;;;;
2021/03/02 00:49:56;;;;;;;10.7;6.100001;;;;;;;-0.61;49.98047;96418.58;;;;
2021/03/02 00:50:56;;;;;;;10.7;6.100001;;;;;;;-0.61;49.98047;96418.58;;;;
2021/03/02 00:51:57;;;;;;;10.7;6.100001;;;;;;;-0.61;49.98047;96418.58;;;;
2021/03/02 00:52:57;;;;;;;10.7;6.100001;;;;;;;-0.61;49.98047;96418.58;;;;
2021/03/02 00:53:58;;;;;;;10.7;6.100001;;;;;;;-0.61;49.98047;96418.58;;;;
2021/03/02 00:54:58;;;;;;;10.25;5.099999;;;;;;;-0.73;50.32324;96423.26;;;;
2021/03/02 00:55:59;;;;;;;10.25;5.099999;;;;;;;-0.73;50.32324;96423.26;;;;
2021/03/02 00:57:00;;;;;;;10.25;5.099999;;;;;;;-0.73;50.32324;96423.26;;;;
2021/03/02 00:58:00;;;;;;;10.25;5.099999;;;;;;;-0.73;50.32324;96423.26;;;;
2021/03/02 00:59:01;;;;;;;10.25;5.099999;;;;;;;-0.73;50.32324;96423.26;;;;
2021/03/02 01:00:01;;;;;;;10.25;5.099999;;;;;;;-0.73;50.32324;96423.26;;;;
2021/03/02 01:01:04;;;;;;;10.25;5.099999;;;;;;;-0.73;50.32324;96423.26;;;;
2021/03/02 01:02:04;;;;;;;10.25;5.099999;;;;;;;-0.73;50.32324;96423.26;;;;
2021/03/02 01:03:05;;;;;;;10.25;5.099999;;;;;;;-0.73;50.32324;96423.26;;;;
2021/03/02 01:04:05;;;;;;;10.25;5.099999;;;;;;;-0.73;50.32324;96423.26;;;;
2021/03/02 01:05:06;;;;;;;14.45;6.95;;;;;;;-0.77;50.3623;96422.71;;;;
2021/03/02 01:06:08;;;;;;;14.45;6.95;;;;;;;-0.77;50.3623;96422.71;;;;
2021/03/02 01:07:08;;;;;;;14.45;6.95;;;;;;;-0.77;50.3623;96422.71;;;;
2021/03/02 01:08:09;;;;;;;14.45;6.95;;;;;;;-0.77;50.3623;96422.71;;;;
2021/03/02 01:09:09;;;;;;;14.45;6.95;;;;;;;-0.77;50.3623;96422.71;;;;
2021/03/02 01:10:11;;;;;;;14.45;6.95;;;;;;;-0.77;50.3623;96422.71;;;;
2021/03/02 01:11:14;;;;;;;14.45;6.95;;;;;;;-0.77;50.3623;96422.71;;;;
2021/03/02 01:12:14;;;;;;;14.45;6.95;;;;;;;-0.77;50.3623;96422.71;;;;
2021/03/02 01:13:15;;;;;;;14.45;6.95;;;;;;;-0.77;50.3623;96422.71;;;;
2021/03/02 01:14:15;;;;;;;14.45;6.95;;;;;;;-0.77;50.3623;96422.71;;;;
2021/03/02 01:15:16;;;;;;;14.45;6.95;;;;;;;-0.77;50.3623;96422.71;;;;
2021/03/02 01:16:16;;;;;;;13.65;6;;;;;;;-0.82;50.42871;96418.8;;;;
2021/03/02 01:17:18;;;;;;;13.65;6;;;;;;;-0.82;50.42871;96418.8;;;;
2021/03/02 01:18:18;;;;;;;13.65;6;;;;;;;-0.82;50.42871;96418.8;;;;
2021/03/02 01:19:19;;;;;;;13.65;6;;;;;;;-0.82;50.42871;96418.8;;;;
2021/03/02 01:20:19;;;;;;;13.65;6;;;;;;;-0.82;50.42871;96418.8;;;;
2021/03/02 01:21:20;;;;;;;13.65;6;;;;;;;-0.82;50.42871;96418.8;;;;
2021/03/02 01:22:20;;;;;;;13.65;6;;;;;;;-0.82;50.42871;96418.8;;;;
2021/03/02 01:23:21;;;;;;;13.65;6;;;;;;;-0.82;50.42871;96418.8;;;;
2021/03/02 01:24:21;;;;;;;13.65;6;;;;;;;-0.82;50.42871;96418.8;;;;
2021/03/02 01:25:23;;;;;;;13.65;6;;;;;;;-0.82;50.42871;96418.8;;;;
2021/03/02 01:26:24;;;;;;;12.05;5.15;;;;;;;-0.91;50.71094;96415.22;;;;
2021/03/02 01:27:24;;;;;;;12.05;5.15;;;;;;;-0.91;50.71094;96415.22;;;;
2021/03/02 01:28:25;;;;;;;12.05;5.15;;;;;;;-0.91;50.71094;96415.22;;;;
2021/03/02 01:29:25;;;;;;;12.05;5.15;;;;;;;-0.91;50.71094;96415.22;;;;
2021/03/02 01:30:26;;;;;;;12.05;5.15;;;;;;;-0.91;50.71094;96415.22;;;;
2021/03/02 01:31:26;;;;;;;12.05;5.15;;;;;;;-0.91;50.71094;96415.22;;;;
2021/03/02 01:32:27;;;;;;;12.05;5.15;;;;;;;-0.91;50.71094;96415.22;;;;
2021/03/02 01:33:27;;;;;;;12.05;5.15;;;;;;;-0.91;50.71094;96415.22;;;;
2021/03/02 01:34:28;;;;;;;12.05;5.15;;;;;;;-0.91;50.71094;96415.22;;;;
2021/03/02 01:35:28;;;;;;;12.05;5.15;;;;;;;-0.91;50.71094;96415.22;;;;
2021/03/02 01:36:29;;;;;;;12.05;5.15;;;;;;;-0.91;50.71094;96415.22;;;;
2021/03/02 01:37:29;;;;;;;10.7;5.9;;;;;;;-0.99;50.88086;96408.37;;;;
2021/03/02 01:38:30;;;;;;;10.7;5.9;;;;;;;-0.99;50.88086;96408.37;;;;
2021/03/02 01:39:31;;;;;;;10.7;5.9;;;;;;;-0.99;50.88086;96408.37;;;;
2021/03/02 01:40:31;;;;;;;10.7;5.9;;;;;;;-0.99;50.88086;96408.37;;;;
2021/03/02 01:41:32;;;;;;;10.7;5.9;;;;;;;-0.99;50.88086;96408.37;;;;
2021/03/02 01:42:33;;;;;;;10.7;5.9;;;;;;;-0.99;50.88086;96408.37;;;;
2021/03/02 01:43:33;;;;;;;10.7;5.9;;;;;;;-0.99;50.88086;96408.37;;;;
2021/03/02 01:44:34;;;;;;;10.7;5.9;;;;;;;-0.99;50.88086;96408.37;;;;
2021/03/02 01:45:36;;;;;;;10.7;5.9;;;;;;;-0.99;50.88086;96408.37;;;;
2021/03/02 01:46:36;;;;;;;10.7;5.9;;;;;;;-0.99;50.88086;96408.37;;;;
2021/03/02 01:47:37;;;;;;;10.6;6;;;;;;;-1.04;50.96777;96412.02;;;;
2021/03/02 01:48:38;;;;;;;10.6;6;;;;;;;-1.04;50.96777;96412.02;;;;
2021/03/02 01:49:40;;;;;;;10.6;6;;;;;;;-1.04;50.96777;96412.02;;;;
2021/03/02 01:50:41;;;;;;;10.6;6;;;;;;;-1.04;50.96777;96412.02;;;;
2021/03/02 01:51:41;;;;;;;10.6;6;;;;;;;-1.04;50.96777;96412.02;;;;
2021/03/02 01:52:42;;;;;;;10.6;6;;;;;;;-1.04;50.96777;96412.02;;;;
2021/03/02 01:53:42;;;;;;;10.6;6;;;;;;;-1.04;50.96777;96412.02;;;;
2021/03/02 01:54:43;;;;;;;10.6;6;;;;;;;-1.04;50.96777;96412.02;;;;
2021/03/02 01:55:44;;;;;;;10.6;6;;;;;;;-1.04;50.96777;96412.02;;;;
2021/03/02 01:56:45;;;;;;;10.6;6;;;;;;;-1.04;50.96777;96412.02;;;;
2021/03/02 01:57:45;;;;;;;10.6;6;;;;;;;-1.04;50.96777;96412.02;;;;
2021/03/02 01:58:46;;;;;;;11.55;6;;;;;;;-1.1;51.3291;96408.53;;;;
2021/03/02 01:59:46;;;;;;;11.55;6;;;;;;;-1.1;51.3291;96408.53;;;;
2021/03/02 02:00:47;;;;;;;11.55;6;;;;;;;-1.1;51.3291;96408.53;;;;
2021/03/02 02:01:51;;;;;;;11.55;6;;;;;;;-1.1;51.3291;96408.53;;;;
2021/03/02 02:02:53;;;;;;;11.55;6;;;;;;;-1.1;51.3291;96408.53;;;;
2021/03/02 02:04:07;;;;;;;11.55;6;;;;;;;-1.1;51.3291;96408.53;;;;
2021/03/02 02:05:12;;;;;;;11.55;6;;;;;;;-1.1;51.3291;96408.53;;;;
2021/03/02 02:06:13;;;;;;;11.55;6;;;;;;;-1.1;51.3291;96408.53;;;;
2021/03/02 02:07:19;;;;;;;11.55;6;;;;;;;-1.1;51.3291;96408.53;;;;
2021/03/02 02:08:27;;;;;;;11.55;6;;;;;;;-1.1;51.3291;96408.53;;;;
2021/03/02 02:09:37;;;;;;;10.7;5.799999;;;;;;;-1.23;51.38672;96405.72;;;;
2021/03/02 02:10:47;;;;;;;10.7;5.799999;;;;;;;-1.23;51.38672;96405.72;;;;
2021/03/02 02:11:52;;;;;;;10.7;5.799999;;;;;;;-1.23;51.38672;96405.72;;;;
2021/03/02 02:12:58;;;;;;;10.7;5.799999;;;;;;;-1.23;51.38672;96405.72;;;;
2021/03/02 02:14:06;;;;;;;10.7;5.799999;;;;;;;-1.23;51.38672;96405.72;;;;
2021/03/02 02:15:13;;;;;;;10.7;5.799999;;;;;;;-1.23;51.38672;96405.72;;;;
2021/03/02 02:16:17;;;;;;;10.7;5.799999;;;;;;;-1.23;51.38672;96405.72;;;;
2021/03/02 02:17:22;;;;;;;10.7;5.799999;;;;;;;-1.23;51.38672;96405.72;;;;
2021/03/02 02:18:30;;;;;;;10.7;5.799999;;;;;;;-1.23;51.38672;96405.72;;;;
2021/03/02 02:19:34;;;;;;;13.7;6.099999;;;;;;;-1.26;51.58203;96412.59;;;;
2021/03/02 02:20:42;;;;;;;13.7;6.099999;;;;;;;-1.26;51.58203;96412.59;;;;
2021/03/02 02:21:50;;;;;;;13.7;6.099999;;;;;;;-1.26;51.58203;96412.59;;;;
2021/03/02 02:23:04;;;;;;;13.7;6.099999;;;;;;;-1.26;51.58203;96412.59;;;;
2021/03/02 02:24:17;;;;;;;13.7;6.099999;;;;;;;-1.26;51.58203;96412.59;;;;
2021/03/02 02:25:23;;;;;;;13.7;6.099999;;;;;;;-1.26;51.58203;96412.59;;;;
2021/03/02 02:26:33;;;;;;;13.7;6.099999;;;;;;;-1.26;51.58203;96412.59;;;;
2021/03/02 02:27:45;;;;;;;13.7;6.099999;;;;;;;-1.26;51.58203;96412.59;;;;
2021/03/02 02:28:49;;;;;;;13.7;6.099999;;;;;;;-1.26;51.58203;96412.59;;;;
2021/03/02 02:29:50;;;;;;;13.7;6.099999;;;;;;;-1.26;51.58203;96412.59;;;;
2021/03/02 02:30:51;;;;;;;13.65;6.15;;;;;;;-1.3;51.71289;96411.22;;;;
2021/03/02 02:31:56;;;;;;;13.65;6.15;;;;;;;-1.3;51.71289;96411.22;;;;
2021/03/02 02:32:59;;;;;;;13.65;6.15;;;;;;;-1.3;51.71289;96411.22;;;;
2021/03/02 02:34:02;;;;;;;13.65;6.15;;;;;;;-1.3;51.71289;96411.22;;;;
2021/03/02 02:35:03;;;;;;;13.65;6.15;;;;;;;-1.3;51.71289;96411.22;;;;
2021/03/02 02:36:07;;;;;;;13.65;6.15;;;;;;;-1.3;51.71289;96411.22;;;;
2021/03/02 02:37:12;;;;;;;13.65;6.15;;;;;;;-1.3;51.71289;96411.22;;;;
2021/03/02 02:38:13;;;;;;;13.65;6.15;;;;;;;-1.3;51.71289;96411.22;;;;
2021/03/02 02:39:18;;;;;;;13.65;6.15;;;;;;;-1.3;51.71289;96411.22;;;;
2021/03/02 02:40:20;;;;;;;13.65;6.15;;;;;;;-1.3;51.71289;96411.22;;;;
2021/03/02 02:41:22;;;;;;;16.05;7.550001;;;;;;;-1.36;51.90332;96409.16;;;;
2021/03/02 02:42:26;;;;;;;16.05;7.550001;;;;;;;-1.36;51.90332;96409.16;;;;
2021/03/02 02:43:28;;;;;;;16.05;7.550001;;;;;;;-1.36;51.90332;96409.16;;;;
2021/03/02 02:44:30;;;;;;;16.05;7.550001;;;;;;;-1.36;51.90332;96409.16;;;;
2021/03/02 02:45:32;;;;;;;16.05;7.550001;;;;;;;-1.36;51.90332;96409.16;;;;
2021/03/02 02:46:33;;;;;;;16.05;7.550001;;;;;;;-1.36;51.90332;96409.16;;;;
2021/03/02 02:47:35;;;;;;;16.05;7.550001;;;;;;;-1.36;51.90332;96409.16;;;;
2021/03/02 02:48:36;;;;;;;16.05;7.550001;;;;;;;-1.36;51.90332;96409.16;;;;
2021/03/02 02:49:36;;;;;;;16.05;7.550001;;;;;;;-1.36;51.90332;96409.16;;;;
2021/03/02 02:50:37;;;;;;;16.05;7.550001;;;;;;;-1.36;51.90332;96409.16;;;;
2021/03/02 02:51:38;;;;;;;13.55;7.100001;;;;;;;-1.43;52.01074;96416.82;;;;
2021/03/02 02:52:39;;;;;;;13.55;7.100001;;;;;;;-1.43;52.01074;96416.82;;;;
2021/03/02 02:53:41;;;;;;;13.55;7.100001;;;;;;;-1.43;52.01074;96416.82;;;;
2021/03/02 02:54:42;;;;;;;13.55;7.100001;;;;;;;-1.43;52.01074;96416.82;;;;
2021/03/02 02:55:45;;;;;;;13.55;7.100001;;;;;;;-1.43;52.01074;96416.82;;;;
2021/03/02 02:56:51;;;;;;;13.55;7.100001;;;;;;;-1.43;52.01074;96416.82;;;;
2021/03/02 02:57:53;;;;;;;13.55;7.100001;;;;;;;-1.43;52.01074;96416.82;;;;
2021/03/02 02:58:54;;;;;;;13.55;7.100001;;;;;;;-1.43;52.01074;96416.82;;;;
2021/03/02 03:00:02;;;;;;;13.55;7.100001;;;;;;;-1.43;52.01074;96416.82;;;;
2021/03/02 03:01:04;;;;;;;13.55;7.100001;;;;;;;-1.43;52.01074;96416.82;;;;
2021/03/02 03:02:06;;;;;;;13.55;7.100001;;;;;;;-1.43;52.01074;96416.82;;;;
2021/03/02 03:03:10;;;;;;;12.55;6.75;;;;;;;-1.51;52.15723;96414.5;;;;
2021/03/02 03:04:14;;;;;;;12.55;6.75;;;;;;;-1.51;52.15723;96414.5;;;;
2021/03/02 03:05:20;;;;;;;12.55;6.75;;;;;;;-1.51;52.15723;96414.5;;;;
2021/03/02 03:06:24;;;;;;;12.55;6.75;;;;;;;-1.51;52.15723;96414.5;;;;
2021/03/02 03:07:28;;;;;;;12.55;6.75;;;;;;;-1.51;52.15723;96414.5;;;;
2021/03/02 03:08:33;;;;;;;12.55;6.75;;;;;;;-1.51;52.15723;96414.5;;;;
2021/03/02 03:09:34;;;;;;;12.55;6.75;;;;;;;-1.51;52.15723;96414.5;;;;
2021/03/02 03:10:36;;;;;;;12.55;6.75;;;;;;;-1.51;52.15723;96414.5;;;;
2021/03/02 03:11:38;;;;;;;12.55;6.75;;;;;;;-1.51;52.15723;96414.5;;;;
2021/03/02 03:12:42;;;;;;;12.55;6.75;;;;;;;-1.51;52.15723;96414.5;;;;
2021/03/02 03:13:45;;;;;;;11.6;6.349999;;;;;;;-1.58;52.34961;96414.59;;;;
2021/03/02 03:14:48;;;;;;;11.6;6.349999;;;;;;;-1.58;52.34961;96414.59;;;;
2021/03/02 03:15:52;;;;;;;11.6;6.349999;;;;;;;-1.58;52.34961;96414.59;;;;
2021/03/02 03:16:58;;;;;;;11.6;6.349999;;;;;;;-1.58;52.34961;96414.59;;;;
2021/03/02 03:17:59;;;;;;;11.6;6.349999;;;;;;;-1.58;52.34961;96414.59;;;;
2021/03/02 03:19:06;;;;;;;11.6;6.349999;;;;;;;-1.58;52.34961;96414.59;;;;
2021/03/02 03:20:09;;;;;;;11.6;6.349999;;;;;;;-1.58;52.34961;96414.59;;;;
2021/03/02 03:21:11;;;;;;;11.6;6.349999;;;;;;;-1.58;52.34961;96414.59;;;;
2021/03/02 03:22:13;;;;;;;11.6;6.349999;;;;;;;-1.58;52.34961;96414.59;;;;
2021/03/02 03:23:16;;;;;;;11.6;6.349999;;;;;;;-1.58;52.34961;96414.59;;;;
2021/03/02 03:24:18;;;;;;;10.5;6.000001;;;;;;;-1.65;52.47754;96412.56;;;;
2021/03/02 03:25:20;;;;;;;10.5;6.000001;;;;;;;-1.65;52.47754;96412.56;;;;
2021/03/02 03:26:20;;;;;;;10.5;6.000001;;;;;;;-1.65;52.47754;96412.56;;;;
2021/03/02 03:27:24;;;;;;;10.5;6.000001;;;;;;;-1.65;52.47754;96412.56;;;;
2021/03/02 03:28:29;;;;;;;10.5;6.000001;;;;;;;-1.65;52.47754;96412.56;;;;
2021/03/02 03:29:30;;;;;;;10.5;6.000001;;;;;;;-1.65;52.47754;96412.56;;;;
2021/03/02 03:30:31;;;;;;;10.5;6.000001;;;;;;;-1.65;52.47754;96412.56;;;;
2021/03/02 03:31:36;;;;;;;10.5;6.000001;;;;;;;-1.65;52.47754;96412.56;;;;
2021/03/02 03:32:37;;;;;;;10.5;6.000001;;;;;;;-1.65;52.47754;96412.56;;;;
2021/03/02 03:33:40;;;;;;;10.5;6.000001;;;;;;;-1.65;52.47754;96412.56;;;;
2021/03/02 03:34:42;;;;;;;14.5;6.849999;;;;;;;-1.7;52.52148;96418.8;;;;
2021/03/02 03:35:44;;;;;;;14.5;6.849999;;;;;;;-1.7;52.52148;96418.8;;;;
2021/03/02 03:36:45;;;;;;;14.5;6.849999;;;;;;;-1.7;52.52148;96418.8;;;;
2021/03/02 03:37:46;;;;;;;14.5;6.849999;;;;;;;-1.7;52.52148;96418.8;;;;
2021/03/02 03:38:47;;;;;;;14.5;6.849999;;;;;;;-1.7;52.52148;96418.8;;;;
2021/03/02 03:39:47;;;;;;;14.5;6.849999;;;;;;;-1.7;52.52148;96418.8;;;;
2021/03/02 03:40:48;;;;;;;14.5;6.849999;;;;;;;-1.7;52.52148;96418.8;;;;
2021/03/02 03:41:50;;;;;;;14.5;6.849999;;;;;;;-1.7;52.52148;96418.8;;;;
2021/03/02 03:42:50;;;;;;;14.5;6.849999;;;;;;;-1.7;52.52148;96418.8;;;;
2021/03/02 03:43:51;;;;;;;14.5;6.849999;;;;;;;-1.7;52.52148;96418.8;;;;
2021/03/02 03:44:51;;;;;;;14.5;6.849999;;;;;;;-1.7;52.52148;96418.8;;;;
2021/03/02 03:45:52;;;;;;;13.1;6.799999;;;;;;;-1.82;52.82031;96414.59;;;;
2021/03/02 03:46:52;;;;;;;13.1;6.799999;;;;;;;-1.82;52.82031;96414.59;;;;
2021/03/02 03:47:53;;;;;;;13.1;6.799999;;;;;;;-1.82;52.82031;96414.59;;;;
2021/03/02 03:48:56;;;;;;;13.1;6.799999;;;;;;;-1.82;52.82031;96414.59;;;;
2021/03/02 03:49:57;;;;;;;13.1;6.799999;;;;;;;-1.82;52.82031;96414.59;;;;
2021/03/02 03:50:58;;;;;;;13.1;6.799999;;;;;;;-1.82;52.82031;96414.59;;;;
2021/03/02 03:51:59;;;;;;;13.1;6.799999;;;;;;;-1.82;52.82031;96414.59;;;;
2021/03/02 03:53:02;;;;;;;13.1;6.799999;;;;;;;-1.82;52.82031;96414.59;;;;
2021/03/02 03:54:05;;;;;;;13.1;6.799999;;;;;;;-1.82;52.82031;96414.59;;;;
2021/03/02 03:55:06;;;;;;;13.1;6.799999;;;;;;;-1.82;52.82031;96414.59;;;;
2021/03/02 03:56:10;;;;;;;13.3;6.25;;;;;;;-1.94;53.05664;96418.3;;;;
2021/03/02 03:57:12;;;;;;;13.3;6.25;;;;;;;-1.94;53.05664;96418.3;;;;
2021/03/02 03:58:13;;;;;;;13.3;6.25;;;;;;;-1.94;53.05664;96418.3;;;;
2021/03/02 03:59:18;;;;;;;13.3;6.25;;;;;;;-1.94;53.05664;96418.3;;;;
2021/03/02 04:00:20;;;;;;;13.3;6.25;;;;;;;-1.94;53.05664;96418.3;;;;
2021/03/02 04:01:21;;;;;;;13.3;6.25;;;;;;;-1.94;53.05664;96418.3;;;;
2021/03/02 04:02:23;;;;;;;13.3;6.25;;;;;;;-1.94;53.05664;96418.3;;;;
2021/03/02 04:03:24;;;;;;;13.3;6.25;;;;;;;-1.94;53.05664;96418.3;;;;
2021/03/02 04:04:27;;;;;;;13.3;6.25;;;;;;;-1.94;53.05664;96418.3;;;;
2021/03/02 04:05:28;;;;;;;13.3;6.25;;;;;;;-1.94;53.05664;96418.3;;;;
2021/03/02 04:06:29;;;;;;;12.15;6.050001;;;;;;;-2.04;53.1709;96426.19;;;;
2021/03/02 04:07:31;;;;;;;12.15;6.050001;;;;;;;-2.04;53.1709;96426.19;;;;
2021/03/02 04:08:32;;;;;;;12.15;6.050001;;;;;;;-2.04;53.1709;96426.19;;;;
2021/03/02 04:09:33;;;;;;;12.15;6.050001;;;;;;;-2.04;53.1709;96426.19;;;;
2021/03/02 04:10:35;;;;;;;12.15;6.050001;;;;;;;-2.04;53.1709;96426.19;;;;
2021/03/02 04:11:36;;;;;;;12.15;6.050001;;;;;;;-2.04;53.1709;96426.19;;;;
2021/03/02 04:12:37;;;;;;;12.15;6.050001;;;;;;;-2.04;53.1709;96426.19;;;;
2021/03/02 04:13:38;;;;;;;12.15;6.050001;;;;;;;-2.04;53.1709;96426.19;;;;
2021/03/02 04:14:39;;;;;;;12.15;6.050001;;;;;;;-2.04;53.1709;96426.19;;;;
2021/03/02 04:15:41;;;;;;;12.15;6.050001;;;;;;;-2.04;53.1709;96426.19;;;;
2021/03/02 04:16:43;;;;;;;12.15;6.050001;;;;;;;-2.04;53.1709;96426.19;;;;
2021/03/02 04:17:44;;;;;;;10.25;5.55;;;;;;;-2.1;53.59082;96426.26;;;;
2021/03/02 04:18:49;;;;;;;10.25;5.55;;;;;;;-2.1;53.59082;96426.26;;;;
2021/03/02 04:19:50;;;;;;;10.25;5.55;;;;;;;-2.1;53.59082;96426.26;;;;
2021/03/02 04:20:50;;;;;;;10.25;5.55;;;;;;;-2.1;53.59082;96426.26;;;;
2021/03/02 04:21:51;;;;;;;10.25;5.55;;;;;;;-2.1;53.59082;96426.26;;;;
2021/03/02 04:22:52;;;;;;;10.25;5.55;;;;;;;-2.1;53.59082;96426.26;;;;
2021/03/02 04:23:55;;;;;;;10.25;5.55;;;;;;;-2.1;53.59082;96426.26;;;;
2021/03/02 04:24:56;;;;;;;10.25;5.55;;;;;;;-2.1;53.59082;96426.26;;;;
2021/03/02 04:25:56;;;;;;;10.25;5.55;;;;;;;-2.1;53.59082;96426.26;;;;
2021/03/02 04:26:57;;;;;;;10.25;5.55;;;;;;;-2.1;53.59082;96426.26;;;;
2021/03/02 04:27:58;;;;;;;9.6;5.349999;;;;;;;-2.12;53.50488;96428.16;;;;
2021/03/02 04:28:59;;;;;;;9.6;5.349999;;;;;;;-2.12;53.50488;96428.16;;;;
2021/03/02 04:30:00;;;;;;;9.6;5.349999;;;;;;;-2.12;53.50488;96428.16;;;;
2021/03/02 04:31:00;;;;;;;9.6;5.349999;;;;;;;-2.12;53.50488;96428.16;;;;
2021/03/02 04:32:01;;;;;;;9.6;5.349999;;;;;;;-2.12;53.50488;96428.16;;;;
2021/03/02 04:33:01;;;;;;;9.6;5.349999;;;;;;;-2.12;53.50488;96428.16;;;;
2021/03/02 04:34:03;;;;;;;9.6;5.349999;;;;;;;-2.12;53.50488;96428.16;;;;
2021/03/02 04:35:03;;;;;;;9.6;5.349999;;;;;;;-2.12;53.50488;96428.16;;;;
2021/03/02 04:36:05;;;;;;;9.6;5.349999;;;;;;;-2.12;53.50488;96428.16;;;;
2021/03/02 04:37:07;;;;;;;9.6;5.349999;;;;;;;-2.12;53.50488;96428.16;;;;
2021/03/02 04:38:09;;;;;;;9.6;5.349999;;;;;;;-2.12;53.50488;96428.16;;;;
2021/03/02 04:39:09;;;;;;;11.05;5.349999;;;;;;;-2.11;53.5791;96430.33;;;;
2021/03/02 04:40:10;;;;;;;11.05;5.349999;;;;;;;-2.11;53.5791;96430.33;;;;
2021/03/02 04:41:12;;;;;;;11.05;5.349999;;;;;;;-2.11;53.5791;96430.33;;;;
2021/03/02 04:42:13;;;;;;;11.05;5.349999;;;;;;;-2.11;53.5791;96430.33;;;;
2021/03/02 04:43:13;;;;;;;11.05;5.349999;;;;;;;-2.11;53.5791;96430.33;;;;
2021/03/02 04:44:14;;;;;;;11.05;5.349999;;;;;;;-2.11;53.5791;96430.33;;;;
2021/03/02 04:45:14;;;;;;;11.05;5.349999;;;;;;;-2.11;53.5791;96430.33;;;;
2021/03/02 04:46:18;;;;;;;11.05;5.349999;;;;;;;-2.11;53.5791;96430.33;;;;
2021/03/02 04:47:19;;;;;;;11.05;5.349999;;;;;;;-2.11;53.5791;96430.33;;;;
2021/03/02 04:48:20;;;;;;;11.05;5.349999;;;;;;;-2.11;53.5791;96430.33;;;;
2021/03/02 04:49:20;;;;;;;10.7;5.299999;;;;;;;-2.14;53.69043;96437.17;;;;
2021/03/02 04:50:21;;;;;;;10.7;5.299999;;;;;;;-2.14;53.69043;96437.17;;;;
2021/03/02 04:51:21;;;;;;;10.7;5.299999;;;;;;;-2.14;53.69043;96437.17;;;;
2021/03/02 04:52:22;;;;;;;10.7;5.299999;;;;;;;-2.14;53.69043;96437.17;;;;
2021/03/02 04:53:22;;;;;;;10.7;5.299999;;;;;;;-2.14;53.69043;96437.17;;;;
2021/03/02 04:54:25;;;;;;;10.7;5.299999;;;;;;;-2.14;53.69043;96437.17;;;;
2021/03/02 04:55:25;;;;;;;10.7;5.299999;;;;;;;-2.14;53.69043;96437.17;;;;
2021/03/02 04:56:26;;;;;;;10.7;5.299999;;;;;;;-2.14;53.69043;96437.17;;;;
2021/03/02 04:57:26;;;;;;;10.7;5.299999;;;;;;;-2.14;53.69043;96437.17;;;;
2021/03/02 04:58:27;;;;;;;10.7;5.299999;;;;;;;-2.14;53.69043;96437.17;;;;
2021/03/02 04:59:27;;;;;;;10.7;5.299999;;;;;;;-2.14;53.69043;96437.17;;;;
2021/03/02 05:00:28;;;;;;;8.400001;5.200001;;;;;;;-2.22;53.88965;96437.43;;;;
2021/03/02 05:01:28;;;;;;;8.400001;5.200001;;;;;;;-2.22;53.88965;96437.43;;;;
2021/03/02 05:02:28;;;;;;;8.400001;5.200001;;;;;;;-2.22;53.88965;96437.43;;;;
2021/03/02 05:03:29;;;;;;;8.400001;5.200001;;;;;;;-2.22;53.88965;96437.43;;;;
2021/03/02 05:04:29;;;;;;;8.400001;5.200001;;;;;;;-2.22;53.88965;96437.43;;;;
2021/03/02 05:05:30;;;;;;;8.400001;5.200001;;;;;;;-2.22;53.88965;96437.43;;;;
2021/03/02 05:06:30;;;;;;;8.400001;5.200001;;;;;;;-2.22;53.88965;96437.43;;;;
2021/03/02 05:07:31;;;;;;;8.400001;5.200001;;;;;;;-2.22;53.88965;96437.43;;;;
2021/03/02 05:08:32;;;;;;;8.400001;5.200001;;;;;;;-2.22;53.88965;96437.43;;;;
2021/03/02 05:09:32;;;;;;;8.400001;5.200001;;;;;;;-2.22;53.88965;96437.43;;;;
2021/03/02 05:10:33;;;;;;;9.700001;5.2;;;;;;;-2.34;54.09375;96450.37;;;;
2021/03/02 05:11:33;;;;;;;9.700001;5.2;;;;;;;-2.34;54.09375;96450.37;;;;
2021/03/02 05:12:34;;;;;;;9.700001;5.2;;;;;;;-2.34;54.09375;96450.37;;;;
2021/03/02 05:13:34;;;;;;;9.700001;5.2;;;;;;;-2.34;54.09375;96450.37;;;;
2021/03/02 05:14:35;;;;;;;9.700001;5.2;;;;;;;-2.34;54.09375;96450.37;;;;
2021/03/02 05:15:36;;;;;;;9.700001;5.2;;;;;;;-2.34;54.09375;96450.37;;;;
2021/03/02 05:16:37;;;;;;;9.700001;5.2;;;;;;;-2.34;54.09375;96450.37;;;;
2021/03/02 05:17:37;;;;;;;9.700001;5.2;;;;;;;-2.34;54.09375;96450.37;;;;
2021/03/02 05:18:38;;;;;;;9.700001;5.2;;;;;;;-2.34;54.09375;96450.37;;;;
2021/03/02 05:19:39;;;;;;;9.700001;5.2;;;;;;;-2.34;54.09375;96450.37;;;;
2021/03/02 05:20:39;;;;;;;9.700001;5.2;;;;;;;-2.34;54.09375;96450.37;;;;
2021/03/02 05:21:40;;;;;;;11.25;6;;;;;;;-2.45;54.18359;96454.4;;;;
2021/03/02 05:22:40;;;;;;;11.25;6;;;;;;;-2.45;54.18359;96454.4;;;;
2021/03/02 05:23:41;;;;;;;11.25;6;;;;;;;-2.45;54.18359;96454.4;;;;
2021/03/02 05:24:41;;;;;;;11.25;6;;;;;;;-2.45;54.18359;96454.4;;;;
2021/03/02 05:25:42;;;;;;;11.25;6;;;;;;;-2.45;54.18359;96454.4;;;;
2021/03/02 05:26:42;;;;;;;11.25;6;;;;;;;-2.45;54.18359;96454.4;;;;
2021/03/02 05:27:43;;;;;;;11.25;6;;;;;;;-2.45;54.18359;96454.4;;;;
2021/03/02 05:28:43;;;;;;;11.25;6;;;;;;;-2.45;54.18359;96454.4;;;;
2021/03/02 05:29:44;;;;;;;11.25;6;;;;;;;-2.45;54.18359;96454.4;;;;
2021/03/02 05:30:44;;;;;;;11.25;6;;;;;;;-2.45;54.18359;96454.4;;;;
2021/03/02 05:31:45;;;;;;;10.25;5.649999;;;;;;;-2.52;54.3418;96450.59;;;;
2021/03/02 05:32:45;;;;;;;10.25;5.649999;;;;;;;-2.52;54.3418;96450.59;;;;
2021/03/02 05:33:46;;;;;;;10.25;5.649999;;;;;;;-2.52;54.3418;96450.59;;;;
2021/03/02 05:34:46;;;;;;;10.25;5.649999;;;;;;;-2.52;54.3418;96450.59;;;;
2021/03/02 05:35:47;;;;;;;10.25;5.649999;;;;;;;-2.52;54.3418;96450.59;;;;
2021/03/02 05:36:47;;;;;;;10.25;5.649999;;;;;;;-2.52;54.3418;96450.59;;;;
2021/03/02 05:37:48;;;;;;;10.25;5.649999;;;;;;;-2.52;54.3418;96450.59;;;;
2021/03/02 05:38:48;;;;;;;10.25;5.649999;;;;;;;-2.52;54.3418;96450.59;;;;
2021/03/02 05:39:49;;;;;;;10.25;5.649999;;;;;;;-2.52;54.3418;96450.59;;;;